createdAt,value
2023-05-05T00:00:19.487Z,1.39
2023-05-05T00:01:19.506Z,1.35
2023-05-05T00:02:19.608Z,1.37
2023-05-05T00:03:19.693Z,1.38
2023-05-05T00:04:19.681Z,1.39
2023-05-05T00:05:19.695Z,1.38
2023-05-05T00:06:19.736Z,1.32
2023-05-05T00:07:19.778Z,1.29
2023-05-05T00:08:19.814Z,1.30
2023-05-05T00:09:19.868Z,1.24
2023-05-05T00:10:19.894Z,1.22
2023-05-05T00:11:19.931Z,1.22
2023-05-05T00:12:19.996Z,1.23
2023-05-05T00:13:20.041Z,1.22
2023-05-05T00:14:20.065Z,1.24
2023-05-05T00:15:20.139Z,1.19
2023-05-05T00:16:20.282Z,1.16
2023-05-05T00:17:20.252Z,1.19
2023-05-05T00:18:20.291Z,1.19
2023-05-05T00:19:20.370Z,1.19
2023-05-05T00:20:20.391Z,1.20
2023-05-05T00:21:20.457Z,1.21
2023-05-05T00:22:20.490Z,1.24
2023-05-05T00:23:20.560Z,1.24
2023-05-05T00:24:20.588Z,1.23
2023-05-05T00:25:20.631Z,1.25
2023-05-05T00:26:20.698Z,1.20
2023-05-05T00:27:20.733Z,1.22
2023-05-05T00:28:20.785Z,1.23
2023-05-05T00:29:20.850Z,1.20
2023-05-05T00:30:20.875Z,1.21
2023-05-05T00:31:20.963Z,1.21
2023-05-05T00:32:20.978Z,1.23
2023-05-05T00:33:20.998Z,1.20
2023-05-05T00:34:21.070Z,1.18
2023-05-05T00:35:21.116Z,1.21
2023-05-05T00:36:21.132Z,1.19
2023-05-05T00:37:21.204Z,1.23
2023-05-05T00:38:21.238Z,1.21
2023-05-05T00:39:21.296Z,1.26
2023-05-05T00:40:21.317Z,1.24
2023-05-05T00:41:21.360Z,1.21
2023-05-05T00:42:21.438Z,1.17
2023-05-05T00:43:21.483Z,1.17
2023-05-05T00:44:21.521Z,1.21
2023-05-05T00:45:21.577Z,1.19
2023-05-05T00:46:21.662Z,1.19
2023-05-05T00:47:21.717Z,1.22
2023-05-05T00:48:21.754Z,1.22
2023-05-05T00:49:21.832Z,1.21
2023-05-05T00:50:21.869Z,1.26
2023-05-05T00:51:21.897Z,1.21
2023-05-05T00:52:21.940Z,1.25
2023-05-05T00:53:21.996Z,1.27
2023-05-05T00:54:22.042Z,1.28
2023-05-05T00:55:22.066Z,1.29
2023-05-05T00:56:22.173Z,1.28
2023-05-05T00:57:22.164Z,1.30
2023-05-05T00:58:22.216Z,1.28
2023-05-05T00:59:22.245Z,1.29
2023-05-05T01:00:22.287Z,1.29
2023-05-05T01:01:22.370Z,1.32
2023-05-05T01:02:22.391Z,1.28
2023-05-05T01:03:22.530Z,1.30
2023-05-05T01:04:22.497Z,1.33
2023-05-05T01:05:22.527Z,1.32
2023-05-05T01:06:22.590Z,1.28
2023-05-05T01:07:22.671Z,1.30
2023-05-05T01:08:22.693Z,1.32
2023-05-05T01:09:22.774Z,1.37
2023-05-05T01:10:23.001Z,1.34
2023-05-05T01:11:22.834Z,1.35
2023-05-05T01:12:22.921Z,1.32
2023-05-05T01:13:22.929Z,1.35
2023-05-05T01:14:22.968Z,1.32
2023-05-05T01:15:23.038Z,1.30
2023-05-05T01:16:23.098Z,1.33
2023-05-05T01:17:23.180Z,1.29
2023-05-05T01:18:23.204Z,1.26
2023-05-05T01:19:23.269Z,1.28
2023-05-05T01:20:23.293Z,1.26
2023-05-05T01:21:23.386Z,1.30
2023-05-05T01:22:23.402Z,1.30
2023-05-05T01:23:23.440Z,1.31
2023-05-05T01:24:23.517Z,1.27
2023-05-05T01:25:23.569Z,1.34
2023-05-05T01:26:23.601Z,1.31
2023-05-05T01:27:23.637Z,1.28
2023-05-05T01:28:23.687Z,1.30
2023-05-05T01:29:23.749Z,1.32
2023-05-05T01:30:23.763Z,1.34
2023-05-05T01:31:23.891Z,1.31
2023-05-05T01:32:23.948Z,1.31
2023-05-05T01:33:23.981Z,1.29
2023-05-05T01:34:24.045Z,1.34
2023-05-05T01:35:24.100Z,1.34
2023-05-05T01:36:24.159Z,1.36
2023-05-05T01:37:24.226Z,1.35
2023-05-05T01:38:24.285Z,1.40
2023-05-05T01:39:24.314Z,1.36
2023-05-05T01:40:24.387Z,1.34
2023-05-05T01:41:24.446Z,1.33
2023-05-05T01:42:24.473Z,1.36
2023-05-05T01:43:24.538Z,1.34
2023-05-05T01:44:24.614Z,1.35
2023-05-05T01:45:24.640Z,1.37
2023-05-05T01:46:24.733Z,1.38
2023-05-05T01:47:24.824Z,1.41
2023-05-05T01:48:24.866Z,1.43
2023-05-05T01:49:24.889Z,1.41
2023-05-05T01:50:24.938Z,1.38
2023-05-05T01:51:24.994Z,1.38
2023-05-05T01:52:25.061Z,1.39
2023-05-05T01:53:25.120Z,1.37
2023-05-05T01:54:25.184Z,1.35
2023-05-05T01:55:25.230Z,1.39
2023-05-05T01:56:25.245Z,1.38
2023-05-05T01:57:25.338Z,1.41
2023-05-05T01:58:25.379Z,1.41
2023-05-05T01:59:25.385Z,1.38
2023-05-05T02:00:25.474Z,1.42
2023-05-05T02:01:25.576Z,1.41
2023-05-05T02:02:25.652Z,1.39
2023-05-05T02:03:25.646Z,1.41
2023-05-05T02:04:25.693Z,1.43
2023-05-05T02:05:25.743Z,1.43
2023-05-05T02:06:25.810Z,1.41
2023-05-05T02:07:25.849Z,1.41
2023-05-05T02:08:25.899Z,1.39
2023-05-05T02:09:25.936Z,1.36
2023-05-05T02:10:26.004Z,1.38
2023-05-05T02:11:26.090Z,1.38
2023-05-05T02:12:26.123Z,1.39
2023-05-05T02:13:26.267Z,1.39
2023-05-05T02:14:26.240Z,1.40
2023-05-05T02:15:26.321Z,1.41
2023-05-05T02:16:26.387Z,1.43
2023-05-05T02:17:26.478Z,1.42
2023-05-05T02:18:26.592Z,1.42
2023-05-05T02:19:26.579Z,1.46
2023-05-05T02:20:26.661Z,1.48
2023-05-05T02:21:26.715Z,1.48
2023-05-05T02:22:26.782Z,1.51
2023-05-05T02:23:26.838Z,1.53
2023-05-05T02:24:26.876Z,1.54
2023-05-05T02:25:26.953Z,1.52
2023-05-05T02:26:26.999Z,1.59
2023-05-05T02:27:27.067Z,1.61
2023-05-05T02:28:27.117Z,1.59
2023-05-05T02:29:27.196Z,1.61
2023-05-05T02:30:27.252Z,1.57
2023-05-05T02:31:27.458Z,1.58
2023-05-05T02:32:27.361Z,1.59
2023-05-05T02:33:27.430Z,1.62
2023-05-05T02:34:27.470Z,1.65
2023-05-05T02:35:27.511Z,1.63
2023-05-05T02:36:27.593Z,1.67
2023-05-05T02:37:27.663Z,1.67
2023-05-05T02:38:27.701Z,1.67
2023-05-05T02:39:27.785Z,1.63
2023-05-05T02:40:27.844Z,1.66
2023-05-05T02:41:27.928Z,1.66
2023-05-05T02:42:27.961Z,1.63
2023-05-05T02:43:28.030Z,1.60
2023-05-05T02:44:28.095Z,1.64
2023-05-05T02:45:28.123Z,1.64
2023-05-05T02:46:28.254Z,1.63
2023-05-05T02:47:28.290Z,1.62
2023-05-05T02:48:28.277Z,1.64
2023-05-05T02:49:28.319Z,1.62
2023-05-05T02:50:28.420Z,1.61
2023-05-05T02:51:28.456Z,1.67
2023-05-05T02:52:28.516Z,1.65
2023-05-05T02:53:28.611Z,1.68
2023-05-05T02:54:28.650Z,1.75
2023-05-05T02:55:28.716Z,1.75
2023-05-05T02:56:28.746Z,1.76
2023-05-05T02:57:28.775Z,1.79
2023-05-05T02:58:28.846Z,1.84
2023-05-05T02:59:28.900Z,1.82
2023-05-05T03:00:28.995Z,1.87
2023-05-05T03:01:29.055Z,1.87
2023-05-05T03:02:29.149Z,1.94
2023-05-05T03:03:29.231Z,1.92
2023-05-05T03:04:29.185Z,1.95
2023-05-05T03:05:29.275Z,1.89
2023-05-05T03:06:29.289Z,1.92
2023-05-05T03:07:29.343Z,1.89
2023-05-05T03:08:29.411Z,1.92
2023-05-05T03:09:29.445Z,1.93
2023-05-05T03:10:29.509Z,1.91
2023-05-05T03:11:29.575Z,1.87
2023-05-05T03:12:29.665Z,1.87
2023-05-05T03:13:29.618Z,1.83
2023-05-05T03:14:32.093Z,1.90
2023-05-05T03:15:29.727Z,1.89
2023-05-05T03:16:29.787Z,1.77
2023-05-05T03:17:29.826Z,1.79
2023-05-05T03:18:29.821Z,1.74
2023-05-05T03:19:29.836Z,1.74
2023-05-05T03:20:29.820Z,1.70
2023-05-05T03:21:29.856Z,1.68
2023-05-05T03:22:29.873Z,1.66
2023-05-05T03:23:30.001Z,1.64
2023-05-05T03:24:29.943Z,1.63
2023-05-05T03:25:29.975Z,1.63
2023-05-05T03:26:29.963Z,1.63
2023-05-05T03:27:29.970Z,1.70
2023-05-05T03:28:29.982Z,1.64
2023-05-05T03:29:30.046Z,1.71
2023-05-05T03:30:30.072Z,1.65
2023-05-05T03:31:30.083Z,1.70
2023-05-05T03:32:30.139Z,1.69
2023-05-05T03:33:31.095Z,1.70
2023-05-05T03:34:30.128Z,1.70
2023-05-05T03:35:30.143Z,1.70
2023-05-05T03:36:30.192Z,1.70
2023-05-05T03:37:30.216Z,1.72
2023-05-05T03:38:30.225Z,1.77
2023-05-05T03:39:30.255Z,1.74
2023-05-05T03:40:43.104Z,1.79
2023-05-05T03:41:31.305Z,1.79
2023-05-05T03:42:30.317Z,1.79
2023-05-05T03:43:30.321Z,1.77
2023-05-05T03:44:30.331Z,1.77
2023-05-05T03:45:30.416Z,1.83
2023-05-05T03:46:30.381Z,1.75
2023-05-05T03:47:30.385Z,1.80
2023-05-05T03:48:30.453Z,1.81
2023-05-05T03:49:30.425Z,1.82
2023-05-05T03:50:30.475Z,1.82
2023-05-05T03:51:30.469Z,1.88
2023-05-05T03:52:30.545Z,1.82
2023-05-05T03:53:30.553Z,1.80
2023-05-05T03:54:30.549Z,1.83
2023-05-05T03:55:30.586Z,1.84
2023-05-05T03:56:30.572Z,1.84
2023-05-05T03:57:30.633Z,1.90
2023-05-05T03:58:30.646Z,1.87
2023-05-05T03:59:30.718Z,1.84
2023-05-05T04:00:30.768Z,1.82
2023-05-05T04:01:30.783Z,1.77
2023-05-05T04:02:30.936Z,1.78
2023-05-05T04:03:31.136Z,1.82
2023-05-05T04:04:30.993Z,1.86
2023-05-05T04:05:31.013Z,1.84
2023-05-05T04:06:31.034Z,1.78
2023-05-05T04:07:31.092Z,1.78
2023-05-05T04:08:31.156Z,1.78
2023-05-05T04:09:31.154Z,1.70
2023-05-05T04:10:31.223Z,1.69
2023-05-05T04:11:31.266Z,1.68
2023-05-05T04:12:31.309Z,1.72
2023-05-05T04:13:31.376Z,1.71
2023-05-05T04:14:31.421Z,1.74
2023-05-05T04:15:31.454Z,1.76
2023-05-05T04:16:31.608Z,1.76
2023-05-05T04:17:31.557Z,1.75
2023-05-05T04:18:31.585Z,1.76
2023-05-05T04:19:31.609Z,1.75
2023-05-05T04:20:31.656Z,1.78
2023-05-05T04:21:31.719Z,1.76
2023-05-05T04:22:31.742Z,1.75
2023-05-05T04:23:31.822Z,1.75
2023-05-05T04:24:31.874Z,1.76
2023-05-05T04:25:31.900Z,1.75
2023-05-05T04:26:31.944Z,1.78
2023-05-05T04:27:31.951Z,1.78
2023-05-05T04:28:32.022Z,1.84
2023-05-05T04:29:32.127Z,1.83
2023-05-05T04:30:32.096Z,1.85
2023-05-05T04:31:32.200Z,1.78
2023-05-05T04:32:32.196Z,1.78
2023-05-05T04:33:32.231Z,1.76
2023-05-05T04:34:32.276Z,1.81
2023-05-05T04:35:32.296Z,1.80
2023-05-05T04:36:32.366Z,1.78
2023-05-05T04:37:32.401Z,1.82
2023-05-05T04:38:32.498Z,1.83
2023-05-05T04:39:32.515Z,1.79
2023-05-05T04:40:32.532Z,1.82
2023-05-05T04:41:32.617Z,1.83
2023-05-05T04:42:32.756Z,1.79
2023-05-05T04:43:32.740Z,1.78
2023-05-05T04:44:32.752Z,1.84
2023-05-05T04:45:32.768Z,1.83
2023-05-05T04:46:32.856Z,1.87
2023-05-05T04:47:32.980Z,1.83
2023-05-05T04:48:32.909Z,1.82
2023-05-05T04:49:32.938Z,1.80
2023-05-05T04:50:32.988Z,1.76
2023-05-05T04:51:33.011Z,1.79
2023-05-05T04:52:33.056Z,1.82
2023-05-05T04:53:33.119Z,1.85
2023-05-05T04:54:33.150Z,1.83
2023-05-05T04:55:33.177Z,1.78
2023-05-05T04:56:33.276Z,1.83
2023-05-05T04:57:33.324Z,1.83
2023-05-05T04:58:33.381Z,1.79
2023-05-05T04:59:33.388Z,1.79
2023-05-05T05:00:33.469Z,1.83
2023-05-05T05:01:40.658Z,1.81
2023-05-05T05:02:33.730Z,1.81
2023-05-05T05:03:33.716Z,1.82
2023-05-05T05:04:33.612Z,1.84
2023-05-05T05:05:33.615Z,1.86
2023-05-05T05:06:33.621Z,1.86
2023-05-05T05:07:33.661Z,1.86
2023-05-05T05:08:33.677Z,1.93
2023-05-05T05:09:34.735Z,1.87
2023-05-05T05:10:34.666Z,1.89
2023-05-05T05:11:33.745Z,1.90
2023-05-05T05:12:33.827Z,1.88
2023-05-05T05:13:33.818Z,1.87
2023-05-05T05:14:33.802Z,1.89
2023-05-05T05:15:33.824Z,1.91
2023-05-05T05:16:33.951Z,1.93
2023-05-05T05:17:33.923Z,1.94
2023-05-05T05:18:33.890Z,1.92
2023-05-05T05:19:33.901Z,1.88
2023-05-05T05:20:33.910Z,1.89
2023-05-05T05:21:33.966Z,1.92
2023-05-05T05:22:33.965Z,1.88
2023-05-05T05:23:33.993Z,1.90
2023-05-05T05:24:33.987Z,1.92
2023-05-05T05:25:34.062Z,1.94
2023-05-05T05:26:34.082Z,1.88
2023-05-05T05:27:34.163Z,1.92
2023-05-05T05:28:34.168Z,1.91
2023-05-05T05:29:34.159Z,1.93
2023-05-05T05:30:34.232Z,2.03
2023-05-05T05:31:34.320Z,2.13
2023-05-05T05:32:34.752Z,2.30
2023-05-05T05:33:34.332Z,2.45
2023-05-05T05:34:34.410Z,2.60
2023-05-05T05:35:34.451Z,2.74
2023-05-05T05:36:34.582Z,2.78
2023-05-05T05:37:34.608Z,2.75
2023-05-05T05:38:34.604Z,2.88
2023-05-05T05:39:34.648Z,2.96
2023-05-05T05:40:34.665Z,3.09
2023-05-05T05:41:34.696Z,3.23
2023-05-05T05:42:34.748Z,3.07
2023-05-05T05:43:34.808Z,2.73
2023-05-05T05:44:34.805Z,2.53
2023-05-05T05:45:34.889Z,2.57
2023-05-05T05:46:41.992Z,2.25
2023-05-05T05:47:35.217Z,2.25
2023-05-05T05:48:35.071Z,2.27
2023-05-05T05:49:35.126Z,2.38
2023-05-05T05:50:35.206Z,2.45
2023-05-05T05:51:35.185Z,2.61
2023-05-05T05:52:35.241Z,2.77
2023-05-05T05:53:35.342Z,2.95
2023-05-05T05:54:35.337Z,2.88
2023-05-05T05:55:35.375Z,3.00
2023-05-05T05:56:35.425Z,2.69
2023-05-05T05:57:35.475Z,2.37
2023-05-05T05:58:35.524Z,2.09
2023-05-05T05:59:35.545Z,1.80
2023-05-05T06:00:35.575Z,1.83
2023-05-05T06:01:35.641Z,1.88
2023-05-05T06:02:35.760Z,2.38
2023-05-05T06:03:35.879Z,3.37
2023-05-05T06:04:35.861Z,3.25
2023-05-05T06:05:35.805Z,3.93
2023-05-05T06:06:35.837Z,4.89
2023-05-05T06:07:35.886Z,4.96
2023-05-05T06:08:35.916Z,5.47
2023-05-05T06:09:36.001Z,4.90
2023-05-05T06:10:36.074Z,4.89
2023-05-05T06:11:36.020Z,3.51
2023-05-05T06:12:36.113Z,3.13
2023-05-05T06:13:36.132Z,3.26
2023-05-05T06:14:36.161Z,2.93
2023-05-05T06:15:36.198Z,2.82
2023-05-05T06:16:36.214Z,2.64
2023-05-05T06:17:36.243Z,2.68
2023-05-05T06:18:36.279Z,2.45
2023-05-05T06:19:36.308Z,2.34
2023-05-05T06:20:36.350Z,2.48
2023-05-05T06:21:36.370Z,2.40
2023-05-05T06:22:36.393Z,2.11
2023-05-05T06:23:36.449Z,1.98
2023-05-05T06:24:36.434Z,2.02
2023-05-05T06:25:36.464Z,1.93
2023-05-05T06:26:36.510Z,1.81
2023-05-05T06:27:36.535Z,1.67
2023-05-05T06:28:36.548Z,1.28
2023-05-05T06:29:36.603Z,1.05
2023-05-05T06:30:36.643Z,1.17
2023-05-05T06:31:36.767Z,1.27
2023-05-05T06:32:36.813Z,1.51
2023-05-05T06:33:36.821Z,1.51
2023-05-05T06:34:36.907Z,1.39
2023-05-05T06:35:36.996Z,1.31
2023-05-05T06:36:37.216Z,1.04
2023-05-05T06:37:37.127Z,0.85
2023-05-05T06:38:37.251Z,0.74
2023-05-05T06:39:37.316Z,0.71
2023-05-05T06:40:37.371Z,0.91
2023-05-05T06:41:37.455Z,0.90
2023-05-05T06:42:37.508Z,0.80
2023-05-05T06:43:37.508Z,0.89
2023-05-05T06:44:37.632Z,1.03
2023-05-05T06:45:37.642Z,1.01
2023-05-05T06:46:38.669Z,0.91
2023-05-05T06:47:37.878Z,1.00
2023-05-05T06:48:37.859Z,1.02
2023-05-05T06:49:37.906Z,1.03
2023-05-05T06:50:38.097Z,0.93
2023-05-05T06:51:38.061Z,0.80
2023-05-05T06:52:38.202Z,0.78
2023-05-05T06:53:38.206Z,0.79
2023-05-05T06:54:38.298Z,0.74
2023-05-05T06:55:38.372Z,0.72
2023-05-05T06:56:38.400Z,0.72
2023-05-05T06:57:38.742Z,0.68
2023-05-05T06:58:38.505Z,0.65
2023-05-05T06:59:38.590Z,0.61
2023-05-05T07:00:38.691Z,0.48
2023-05-05T07:01:38.665Z,0.50
2023-05-05T07:02:38.962Z,0.50
2023-05-05T07:03:38.885Z,0.51
2023-05-05T07:04:38.901Z,0.59
2023-05-05T07:05:38.967Z,0.78
2023-05-05T07:06:39.002Z,0.88
2023-05-05T07:07:39.057Z,0.86
2023-05-05T07:08:39.104Z,1.03
2023-05-05T07:09:39.182Z,1.15
2023-05-05T07:10:39.301Z,1.11
2023-05-05T07:11:39.244Z,1.30
2023-05-05T07:12:39.455Z,1.40
2023-05-05T07:13:39.328Z,1.43
2023-05-05T07:14:39.403Z,1.66
2023-05-05T07:15:39.451Z,1.90
2023-05-05T07:16:39.541Z,1.89
2023-05-05T07:17:39.653Z,2.09
2023-05-05T07:18:39.542Z,2.07
2023-05-05T07:19:39.590Z,1.96
2023-05-05T07:20:39.589Z,2.34
2023-05-05T07:21:39.708Z,2.69
2023-05-05T07:22:39.689Z,2.70
2023-05-05T07:23:39.745Z,2.52
2023-05-05T07:24:39.787Z,2.33
2023-05-05T07:25:39.833Z,2.18
2023-05-05T07:26:39.868Z,2.44
2023-05-05T07:27:39.864Z,2.46
2023-05-05T07:28:39.876Z,2.79
2023-05-05T07:29:39.993Z,2.92
2023-05-05T07:30:40.006Z,3.01
2023-05-05T07:31:40.046Z,3.23
2023-05-05T07:32:40.133Z,3.40
2023-05-05T07:33:40.251Z,3.89
2023-05-05T07:34:40.209Z,4.23
2023-05-05T07:35:40.235Z,3.60
2023-05-05T07:36:40.296Z,2.16
2023-05-05T07:37:40.385Z,1.42
2023-05-05T07:38:40.421Z,1.46
2023-05-05T07:39:40.464Z,1.56
2023-05-05T07:40:40.502Z,2.08
2023-05-05T07:41:40.574Z,1.40
2023-05-05T07:42:40.619Z,1.42
2023-05-05T07:43:41.715Z,1.53
2023-05-05T07:44:41.057Z,2.14
2023-05-05T07:45:41.151Z,2.56
2023-05-05T07:46:40.833Z,2.92
2023-05-05T07:47:40.903Z,3.04
2023-05-05T07:48:41.468Z,2.94
2023-05-05T07:49:41.173Z,3.08
2023-05-05T07:50:41.099Z,3.37
2023-05-05T07:51:41.127Z,3.37
2023-05-05T07:52:46.559Z,3.44
2023-05-05T07:53:42.211Z,3.45
2023-05-05T07:54:41.206Z,3.52
2023-05-05T07:55:41.231Z,3.59
2023-05-05T07:56:41.231Z,3.61
2023-05-05T07:57:41.245Z,3.74
2023-05-05T07:58:41.251Z,3.56
2023-05-05T07:59:41.230Z,3.25
2023-05-05T08:00:41.285Z,2.94
2023-05-05T08:01:41.286Z,2.66
2023-05-05T08:02:41.881Z,2.60
2023-05-05T08:03:41.523Z,2.74
2023-05-05T08:04:41.417Z,2.39
2023-05-05T08:05:41.494Z,2.28
2023-05-05T08:06:41.408Z,1.98
2023-05-05T08:07:41.791Z,1.93
2023-05-05T08:08:41.571Z,1.85
2023-05-05T08:09:41.583Z,1.95
2023-05-05T08:10:41.710Z,2.46
2023-05-05T08:11:41.650Z,2.81
2023-05-05T08:12:41.731Z,2.53
2023-05-05T08:13:41.766Z,2.07
2023-05-05T08:14:41.783Z,2.08
2023-05-05T08:15:41.867Z,2.04
2023-05-05T08:16:41.991Z,1.80
2023-05-05T08:17:41.932Z,1.76
2023-05-05T08:18:41.969Z,1.68
2023-05-05T08:19:42.032Z,1.66
2023-05-05T08:20:42.079Z,1.73
2023-05-05T08:21:42.174Z,1.78
2023-05-05T08:22:42.115Z,2.04
2023-05-05T08:23:42.148Z,2.22
2023-05-05T08:24:42.142Z,2.23
2023-05-05T08:25:42.190Z,2.21
2023-05-05T08:26:42.210Z,2.34
2023-05-05T08:27:42.300Z,2.52
2023-05-05T08:28:42.274Z,2.70
2023-05-05T08:29:42.309Z,2.73
2023-05-05T08:30:42.355Z,2.91
2023-05-05T08:31:42.377Z,3.17
2023-05-05T08:32:42.790Z,3.34
2023-05-05T08:33:42.449Z,3.92
2023-05-05T08:34:42.475Z,4.15
2023-05-05T08:35:42.467Z,4.09
2023-05-05T08:36:42.480Z,3.21
2023-05-05T08:37:43.042Z,2.28
2023-05-05T08:38:42.580Z,0.89
2023-05-05T08:39:42.674Z,0.39
2023-05-05T08:40:42.665Z,0.75
2023-05-05T08:41:42.741Z,0.54
2023-05-05T08:42:43.299Z,0.45
2023-05-05T08:43:42.848Z,0.37
2023-05-05T08:44:42.857Z,0.45
2023-05-05T08:45:42.910Z,0.34
2023-05-05T08:46:42.985Z,0.43
2023-05-05T08:47:43.123Z,0.53
2023-05-05T08:48:43.089Z,0.47
2023-05-05T08:49:43.154Z,0.34
2023-05-05T08:50:43.198Z,0.36
2023-05-05T08:51:43.228Z,0.73
2023-05-05T08:52:43.477Z,0.56
2023-05-05T08:53:43.881Z,0.49
2023-05-05T08:54:43.423Z,0.92
2023-05-05T08:55:43.474Z,0.72
2023-05-05T08:56:43.587Z,0.98
2023-05-05T08:57:43.581Z,1.01
2023-05-05T08:58:43.615Z,0.53
2023-05-05T08:59:43.663Z,0.68
2023-05-05T09:00:43.789Z,0.73
2023-05-05T09:01:43.788Z,0.67
2023-05-05T09:02:44.089Z,0.65
2023-05-05T09:03:43.890Z,1.42
2023-05-05T09:04:44.014Z,1.82
2023-05-05T09:05:44.003Z,2.00
2023-05-05T09:06:44.066Z,2.39
2023-05-05T09:07:44.252Z,2.64
2023-05-05T09:08:44.268Z,2.93
2023-05-05T09:09:44.262Z,3.26
2023-05-05T09:10:44.245Z,3.70
2023-05-05T09:11:44.257Z,4.39
2023-05-05T09:12:44.314Z,4.62
2023-05-05T09:13:45.312Z,5.18
2023-05-05T09:14:44.404Z,6.06
2023-05-05T09:15:44.420Z,6.42
2023-05-05T09:16:44.432Z,6.98
2023-05-05T09:17:44.585Z,8.31
2023-05-05T09:18:44.461Z,9.84
2023-05-05T09:19:44.542Z,11.58
2023-05-05T09:20:44.497Z,11.32
2023-05-05T09:21:45.287Z,10.96
2023-05-05T09:22:44.577Z,11.45
2023-05-05T09:23:44.554Z,11.67
2023-05-05T09:24:44.582Z,11.27
2023-05-05T09:25:44.710Z,10.97
2023-05-05T09:26:44.695Z,10.77
2023-05-05T09:27:44.594Z,10.88
2023-05-05T09:28:44.658Z,10.91
2023-05-05T09:29:44.695Z,10.15
2023-05-05T09:30:44.737Z,9.53
2023-05-05T09:31:44.737Z,8.50
2023-05-05T09:32:44.917Z,8.58
2023-05-05T09:33:44.816Z,9.46
2023-05-05T09:34:44.843Z,10.87
2023-05-05T09:35:44.801Z,10.92
2023-05-05T09:36:45.013Z,10.40
2023-05-05T09:37:45.211Z,11.49
2023-05-05T09:38:45.066Z,11.96
2023-05-05T09:39:44.893Z,9.31
2023-05-05T09:40:44.912Z,6.90
2023-05-05T09:41:44.980Z,6.93
2023-05-05T09:42:45.071Z,6.03
2023-05-05T09:43:45.307Z,6.92
2023-05-05T09:44:44.973Z,6.66
2023-05-05T09:45:45.013Z,8.00
2023-05-05T09:46:45.039Z,4.65
2023-05-05T09:47:45.052Z,2.97
2023-05-05T09:48:45.024Z,4.18
2023-05-05T09:49:45.071Z,4.99
2023-05-05T09:50:45.069Z,2.50
2023-05-05T09:51:45.123Z,3.16
2023-05-05T09:52:45.795Z,3.70
2023-05-05T09:53:45.709Z,3.79
2023-05-05T09:54:45.157Z,4.39
2023-05-05T09:55:45.184Z,4.91
2023-05-05T09:56:45.233Z,5.02
2023-05-05T09:57:45.424Z,4.88
2023-05-05T09:58:45.276Z,4.60
2023-05-05T09:59:45.313Z,4.34
2023-05-05T10:00:45.341Z,4.69
2023-05-05T10:01:45.398Z,3.80
2023-05-05T10:02:45.436Z,3.03
2023-05-05T10:03:45.402Z,3.38
2023-05-05T10:04:45.431Z,4.71
2023-05-05T10:05:45.444Z,5.37
2023-05-05T10:06:45.467Z,5.32
2023-05-05T10:07:45.449Z,5.32
2023-05-05T10:08:45.532Z,5.20
2023-05-05T10:09:45.503Z,3.58
2023-05-05T10:10:45.552Z,3.35
2023-05-05T10:11:45.588Z,4.61
2023-05-05T10:12:45.580Z,5.09
2023-05-05T10:13:45.780Z,4.32
2023-05-05T10:14:45.617Z,3.77
2023-05-05T10:15:45.713Z,4.79
2023-05-05T10:16:45.788Z,5.24
2023-05-05T10:17:57.842Z,4.01
2023-05-05T10:18:46.700Z,4.01
2023-05-05T10:19:45.646Z,3.79
2023-05-05T10:20:45.667Z,3.84
2023-05-05T10:21:45.657Z,3.74
2023-05-05T10:22:45.630Z,3.97
2023-05-05T10:23:45.643Z,3.05
2023-05-05T10:24:45.625Z,3.46
2023-05-05T10:25:45.606Z,3.08
2023-05-05T10:26:45.629Z,3.79
2023-05-05T10:27:45.622Z,3.89
2023-05-05T10:28:45.822Z,4.16
2023-05-05T10:29:45.630Z,3.74
2023-05-05T10:30:45.631Z,3.62
2023-05-05T10:31:45.635Z,3.42
2023-05-05T10:32:59.380Z,3.59
2023-05-05T10:33:46.782Z,3.31
2023-05-05T10:34:45.654Z,3.45
2023-05-05T10:35:45.623Z,3.69
2023-05-05T10:36:45.605Z,2.87
2023-05-05T10:37:45.641Z,2.41
2023-05-05T10:38:45.805Z,0.87
2023-05-05T10:39:45.616Z,1.03
2023-05-05T10:40:45.588Z,1.36
2023-05-05T10:41:45.596Z,1.85
2023-05-05T10:42:45.566Z,1.15
2023-05-05T10:43:45.806Z,0.60
2023-05-05T10:44:45.589Z,0.53
2023-05-05T10:45:45.685Z,0.40
2023-05-05T10:46:45.623Z,0.79
2023-05-05T10:47:45.600Z,0.75
2023-05-05T10:48:45.900Z,1.16
2023-05-05T10:49:45.573Z,1.23
2023-05-05T10:50:45.590Z,1.37
2023-05-05T10:51:45.560Z,0.81
2023-05-05T10:52:45.620Z,0.94
2023-05-05T10:53:45.665Z,1.25
2023-05-05T10:54:45.823Z,0.85
2023-05-05T10:55:45.664Z,0.84
2023-05-05T10:56:45.703Z,0.38
2023-05-05T10:57:45.719Z,0.34
2023-05-05T10:58:58.834Z,0.34
2023-05-05T10:59:46.747Z,0.35
2023-05-05T11:00:45.779Z,0.38
2023-05-05T11:01:45.734Z,0.45
2023-05-05T11:02:45.759Z,0.63
2023-05-05T11:03:45.855Z,0.49
2023-05-05T11:04:45.759Z,0.34
2023-05-05T11:05:45.749Z,0.34
2023-05-05T11:06:45.798Z,0.39
2023-05-05T11:07:45.806Z,0.57
2023-05-05T11:08:45.781Z,0.84
2023-05-05T11:09:45.786Z,1.42
2023-05-05T11:10:45.774Z,1.48
2023-05-05T11:11:45.805Z,1.94
2023-05-05T11:12:45.844Z,1.06
2023-05-05T11:13:45.756Z,0.69
2023-05-05T11:14:45.797Z,0.53
2023-05-05T11:15:45.774Z,0.65
2023-05-05T11:16:45.905Z,0.78
2023-05-05T11:17:45.844Z,0.86
2023-05-05T11:18:45.785Z,0.81
2023-05-05T11:19:45.820Z,0.93
2023-05-05T11:20:45.796Z,1.06
2023-05-05T11:21:45.833Z,1.38
2023-05-05T11:22:45.869Z,1.35
2023-05-05T11:23:45.893Z,1.13
2023-05-05T11:24:45.887Z,1.07
2023-05-05T11:25:45.952Z,1.02
2023-05-05T11:26:45.960Z,1.34
2023-05-05T11:27:46.028Z,1.78
2023-05-05T11:28:46.069Z,1.97
2023-05-05T11:29:46.081Z,2.04
2023-05-05T11:30:46.179Z,2.03
2023-05-05T11:31:46.181Z,2.33
2023-05-05T11:32:46.299Z,2.49
2023-05-05T11:33:46.308Z,2.30
2023-05-05T11:34:46.348Z,2.16
2023-05-05T11:35:46.324Z,2.75
2023-05-05T11:36:46.414Z,3.12
2023-05-05T11:37:46.515Z,3.13
2023-05-05T11:38:46.524Z,2.50
2023-05-05T11:39:46.623Z,2.35
2023-05-05T11:40:46.662Z,2.37
2023-05-05T11:41:46.723Z,2.63
2023-05-05T11:42:46.760Z,2.90
2023-05-05T11:43:46.789Z,2.67
2023-05-05T11:44:46.852Z,2.43
2023-05-05T11:45:46.879Z,2.20
2023-05-05T11:46:46.906Z,2.36
2023-05-05T11:47:47.008Z,2.68
2023-05-05T11:48:47.018Z,3.09
2023-05-05T11:49:47.285Z,3.57
2023-05-05T11:50:47.110Z,4.36
2023-05-05T11:51:47.147Z,4.50
2023-05-05T11:52:47.170Z,4.36
2023-05-05T11:53:47.210Z,4.51
2023-05-05T11:54:47.213Z,3.75
2023-05-05T11:55:47.251Z,3.44
2023-05-05T11:56:47.295Z,4.24
2023-05-05T11:57:47.338Z,5.13
2023-05-05T11:58:47.369Z,6.09
2023-05-05T11:59:49.409Z,6.46
2023-05-05T12:00:47.487Z,6.70
2023-05-05T12:01:47.498Z,6.71
2023-05-05T12:02:47.637Z,6.51
2023-05-05T12:03:47.660Z,6.54
2023-05-05T12:04:47.941Z,7.46
2023-05-05T12:05:47.662Z,7.30
2023-05-05T12:06:47.709Z,7.61
2023-05-05T12:07:47.710Z,7.58
2023-05-05T12:08:47.741Z,6.63
2023-05-05T12:09:47.797Z,5.16
2023-05-05T12:10:47.809Z,5.55
2023-05-05T12:11:47.844Z,6.52
2023-05-05T12:12:48.230Z,7.20
2023-05-05T12:13:47.903Z,7.27
2023-05-05T12:14:47.969Z,6.27
2023-05-05T12:15:47.985Z,5.20
2023-05-05T12:16:48.028Z,4.41
2023-05-05T12:17:48.079Z,4.41
2023-05-05T12:18:48.055Z,4.53
2023-05-05T12:19:48.110Z,4.42
2023-05-05T12:20:48.124Z,4.28
2023-05-05T12:21:48.187Z,4.01
2023-05-05T12:22:48.155Z,3.64
2023-05-05T12:23:48.208Z,3.03
2023-05-05T12:24:48.214Z,3.41
2023-05-05T12:25:48.397Z,3.68
2023-05-05T12:26:48.261Z,3.89
2023-05-05T12:27:48.247Z,4.64
2023-05-05T12:28:48.298Z,4.65
2023-05-05T12:29:48.326Z,4.46
2023-05-05T12:30:48.321Z,4.49
2023-05-05T12:31:48.360Z,4.74
2023-05-05T12:32:48.485Z,2.81
2023-05-05T12:33:48.434Z,2.15
2023-05-05T12:34:48.450Z,1.80
2023-05-05T12:35:48.453Z,1.55
2023-05-05T12:36:48.498Z,1.42
2023-05-05T12:37:48.592Z,0.85
2023-05-05T12:38:48.543Z,0.86
2023-05-05T12:39:48.549Z,1.03
2023-05-05T12:40:48.614Z,1.07
2023-05-05T12:41:48.626Z,1.12
2023-05-05T12:42:48.692Z,1.05
2023-05-05T12:43:48.612Z,1.09
2023-05-05T12:44:48.665Z,1.29
2023-05-05T12:45:48.758Z,1.37
2023-05-05T12:46:48.707Z,1.67
2023-05-05T12:47:48.776Z,1.76
2023-05-05T12:48:48.748Z,1.52
2023-05-05T12:49:48.748Z,1.50
2023-05-05T12:50:48.784Z,1.56
2023-05-05T12:51:48.792Z,1.85
2023-05-05T12:52:48.846Z,2.39
2023-05-05T12:53:48.851Z,2.74
2023-05-05T12:54:48.905Z,2.60
2023-05-05T12:55:48.898Z,2.38
2023-05-05T12:56:48.995Z,2.39
2023-05-05T12:57:48.975Z,2.58
2023-05-05T12:58:49.002Z,2.54
2023-05-05T12:59:49.021Z,2.36
2023-05-05T13:00:49.086Z,2.58
2023-05-05T13:01:49.248Z,2.90
2023-05-05T13:02:49.139Z,2.66
2023-05-05T13:03:49.128Z,2.95
2023-05-05T13:04:49.187Z,3.11
2023-05-05T13:05:49.184Z,2.58
2023-05-05T13:06:49.206Z,2.36
2023-05-05T13:07:49.202Z,2.58
2023-05-05T13:08:49.266Z,2.45
2023-05-05T13:09:49.444Z,2.35
2023-05-05T13:10:49.322Z,2.46
2023-05-05T13:11:49.348Z,2.26
2023-05-05T13:12:49.420Z,2.48
2023-05-05T13:13:49.447Z,2.35
2023-05-05T13:14:49.471Z,2.22
2023-05-05T13:15:49.553Z,2.63
2023-05-05T13:16:49.555Z,2.36
2023-05-05T13:17:49.609Z,2.39